KBYH Airport (Arkansas Intl) Information

FAA: BYH - ICAO: KBYH

KBYH Airport Location

State Arkansas
County Mississippi
City Blytheville
KBYH Airport is 3 miles northwest of Blytheville, AR.
Latitude 35-57-51.6000N
Longitude 089-56-38.2000W
Elevation 254ft

KBYH Airport METARs

METAR KBYH 292158Z 21011G20KT 10SM SKC 12/M01 A3008 RMK LAST
Altimeter 30.08"
Temperature 12.0°C (53.6°F)
Wind 210° at 11KT with gusts to 20KT
Clouds Skies are clear.
Visibility 10.0mi
Time observed: 2021-11-29T21:58:00Z

KBYH Airport Details

Status Operational
Activation October 1943
Ownership Public
Usage Public
Chart MEMPHIS
ATC on-site No
Beacon schedule sunset-sunrise
Beacon color clear green

KBYH Airport Contacts

Owner GOSNELL REG AIRPORT AUTHORITY
Owner address 4701 MEMORIAL DRIVE, BLYTHEVILLE, AR 72315-0166
Owner phone 870-532-2100
Manager KENNITH D. PEARSON
Manager address PO BOX 88, BIGELOW, AR 72016
Manager phone 501-759-2830

KBYH Airport (Arkansas Intl) Radio Frequencies

KBYH (Airport) Radio Frequencies

UNICOM 122.7
Common traffic advisory frequency (CTAF) 122.7